createdAt,value
2023-02-03T00:00:57.904Z,100837.78
2023-02-03T00:04:00.322Z,100808.69
2023-02-03T00:07:02.801Z,100803.53
2023-02-03T00:10:07.054Z,100779.66
2023-02-03T00:13:09.531Z,100794.16
2023-02-03T00:16:11.908Z,100803.53
2023-02-03T00:19:15.948Z,100821.47
2023-02-03T00:22:19.750Z,100810.41
2023-02-03T00:25:22.093Z,100841.97
2023-02-03T00:28:28.254Z,100853.13
2023-02-03T00:31:30.920Z,100866.81
2023-02-03T00:34:34.549Z,100839.53
2023-02-03T00:37:36.870Z,100880.47
2023-02-03T00:40:39.613Z,100836.97
2023-02-03T00:43:42.117Z,100890.72
2023-02-03T00:46:44.526Z,100866.78
2023-02-03T00:49:47.697Z,100869.38
2023-02-03T00:52:50.105Z,100865.94
2023-02-03T00:55:52.551Z,100862.50
2023-02-03T00:58:55.033Z,100910.31
2023-02-03T01:01:57.522Z,100905.19
2023-02-03T01:05:00.450Z,100894.94
2023-02-03T01:08:03.339Z,100904.31
2023-02-03T01:11:07.751Z,100906.84
2023-02-03T01:14:10.507Z,100908.53
2023-02-03T01:17:12.876Z,100891.44
2023-02-03T01:20:16.951Z,100906.78
2023-02-03T01:23:19.360Z,100904.19
2023-02-03T01:26:23.481Z,100874.31
2023-02-03T01:29:26.433Z,100884.53
2023-02-03T01:32:28.885Z,100908.47
2023-02-03T01:35:35.057Z,100894.72
2023-02-03T01:38:38.953Z,100926.31
2023-02-03T01:41:41.720Z,100928.00
2023-02-03T01:44:45.580Z,100931.41
2023-02-03T01:47:58.678Z,100920.31
2023-02-03T01:51:02.900Z,100915.25
2023-02-03T01:54:07.354Z,100891.25
2023-02-03T01:57:43.236Z,100910.03
2023-02-03T02:00:47.212Z,100907.41
2023-02-03T02:03:54.369Z,100906.63
2023-02-03T02:06:58.264Z,100919.41
2023-02-03T02:10:01.334Z,100898.00
2023-02-03T02:13:05.430Z,100915.94
2023-02-03T02:16:18.028Z,100876.50
2023-02-03T02:20:20.773Z,100939.75
2023-02-03T02:23:48.810Z,100940.59
2023-02-03T02:27:00.689Z,100931.22
2023-02-03T02:30:27.653Z,100943.16
2023-02-03T02:33:42.898Z,100918.41
2023-02-03T02:36:54.334Z,100956.09
2023-02-03T02:40:01.865Z,100956.19
2023-02-03T02:43:08.586Z,100961.25
2023-02-03T02:46:16.213Z,100932.22
2023-02-03T02:49:18.696Z,100974.00
2023-02-03T02:52:24.410Z,100939.63
2023-02-03T02:55:32.443Z,100927.63
2023-02-03T02:58:41.071Z,100900.91
2023-02-03T03:01:43.540Z,100963.88
2023-02-03T03:04:49.863Z,100920.84
2023-02-03T03:08:02.723Z,100955.88
2023-02-03T03:11:05.743Z,100960.34
2023-02-03T03:14:09.968Z,100957.72
2023-02-03T03:17:19.354Z,100956.84
2023-02-03T03:20:26.012Z,100927.84
2023-02-03T03:23:32.165Z,100960.50
2023-02-03T03:26:54.546Z,100939.34
2023-02-03T03:30:02.201Z,100916.31
2023-02-03T03:33:07.572Z,100924.22
2023-02-03T03:36:19.232Z,100971.31
2023-02-03T03:39:50.746Z,100962.97
2023-02-03T03:42:58.930Z,100966.28
2023-02-03T03:46:12.479Z,100973.66
2023-02-03T03:49:18.463Z,100939.31
2023-02-03T03:52:26.679Z,100973.56
2023-02-03T03:55:34.142Z,100978.66
2023-02-03T03:58:40.255Z,100976.16
2023-02-03T04:01:43.116Z,100977.06
2023-02-03T04:04:47.711Z,100985.59
2023-02-03T04:07:50.093Z,100972.06
2023-02-03T04:10:52.549Z,100970.34
2023-02-03T04:13:54.945Z,100975.44
2023-02-03T04:16:58.714Z,100975.56
2023-02-03T04:20:01.145Z,100932.84
2023-02-03T04:23:03.523Z,100921.78
2023-02-03T04:26:05.932Z,100936.41
2023-02-03T04:29:08.415Z,100944.06
2023-02-03T04:32:10.904Z,100953.44
2023-02-03T04:35:13.805Z,100924.41
2023-02-03T04:38:16.139Z,100947.47
2023-02-03T04:41:18.690Z,100932.06
2023-02-03T04:44:21.129Z,100941.50
2023-02-03T04:47:23.565Z,100949.91
2023-02-03T04:50:26.177Z,100965.13
2023-02-03T04:53:29.145Z,100996.50
2023-02-03T04:56:31.452Z,100993.00
2023-02-03T04:59:34.064Z,100966.34
2023-02-03T05:02:36.431Z,100999.81
2023-02-03T05:05:38.909Z,100989.59
2023-02-03T05:08:41.268Z,100978.31
2023-02-03T05:11:43.677Z,100973.13
2023-02-03T05:14:46.062Z,100972.34
2023-02-03T05:17:48.432Z,100996.56
2023-02-03T05:20:50.839Z,100995.47
2023-02-03T05:23:53.284Z,100964.31
2023-02-03T05:26:55.667Z,100988.97
2023-02-03T05:29:58.075Z,100991.13
2023-02-03T05:33:00.512Z,101002.03
2023-02-03T05:36:02.976Z,101000.25
2023-02-03T05:39:05.372Z,100994.44
2023-02-03T05:42:07.932Z,101003.94
2023-02-03T05:45:10.489Z,100975.66
2023-02-03T05:48:12.903Z,100973.53
2023-02-03T05:51:15.277Z,100994.47
2023-02-03T05:54:17.636Z,101017.41
2023-02-03T05:57:19.961Z,101025.19
2023-02-03T06:00:24.881Z,101002.91
2023-02-03T06:03:27.456Z,101032.84
2023-02-03T06:06:33.949Z,101026.06
2023-02-03T06:09:36.379Z,101008.19
2023-02-03T06:12:39.145Z,101027.84
2023-02-03T06:15:42.152Z,101027.03
2023-02-03T06:18:44.508Z,101015.13
2023-02-03T06:21:46.912Z,101021.19
2023-02-03T06:24:49.819Z,101019.88
2023-02-03T06:27:52.269Z,101011.56
2023-02-03T06:30:54.695Z,101004.53
2023-02-03T06:33:57.411Z,100998.84
2023-02-03T06:36:59.861Z,101019.53
2023-02-03T06:40:02.964Z,100983.69
2023-02-03T06:43:05.592Z,100983.78
2023-02-03T06:46:08.024Z,101007.09
2023-02-03T06:49:10.784Z,101009.78
2023-02-03T06:52:13.325Z,101006.44
2023-02-03T06:55:15.927Z,101009.84
2023-02-03T06:58:18.296Z,101002.31
2023-02-03T07:01:20.895Z,101000.56
2023-02-03T07:04:23.816Z,100947.63
2023-02-03T07:07:26.284Z,100999.78
2023-02-03T07:10:28.933Z,100983.63
2023-02-03T07:13:31.472Z,101006.75
2023-02-03T07:16:34.348Z,100941.88
2023-02-03T07:19:36.721Z,100959.00
2023-02-03T07:22:42.030Z,100995.75
2023-02-03T07:25:44.879Z,100996.63
2023-02-03T07:28:47.403Z,100973.53
2023-02-03T07:31:49.930Z,100961.59
2023-02-03T07:34:52.445Z,100996.66
2023-02-03T07:37:54.807Z,100984.69
2023-02-03T07:40:57.475Z,100962.44
2023-02-03T07:43:59.841Z,100952.22
2023-02-03T07:47:02.629Z,100971.00
2023-02-03T07:50:05.265Z,100949.63
2023-02-03T07:53:11.173Z,100943.59
2023-02-03T07:56:13.988Z,100936.75
2023-02-03T07:59:17.421Z,100967.56
2023-02-03T08:02:19.803Z,100961.56
2023-02-03T08:05:22.350Z,100969.28
2023-02-03T08:08:24.941Z,100941.94
2023-02-03T08:11:27.465Z,100980.38
2023-02-03T08:14:31.273Z,100979.53
2023-02-03T08:17:33.817Z,100988.09
2023-02-03T08:20:36.179Z,100987.25
2023-02-03T08:23:38.812Z,100980.41
2023-02-03T08:26:41.174Z,100991.50
2023-02-03T08:29:44.557Z,100998.31
2023-02-03T08:32:46.906Z,101000.03
2023-02-03T08:35:50.429Z,100967.53
2023-02-03T08:38:52.926Z,100975.22
2023-02-03T08:41:55.249Z,100970.84
2023-02-03T08:44:58.176Z,100993.91
2023-02-03T08:48:00.687Z,101009.19
2023-02-03T08:51:09.290Z,101010.78
2023-02-03T08:54:12.089Z,100985.13
2023-02-03T08:57:14.926Z,101008.34
2023-02-03T09:00:17.658Z,100978.44
2023-02-03T09:03:20.188Z,101005.66
2023-02-03T09:06:24.656Z,101016.72
2023-02-03T09:09:29.116Z,101013.31
2023-02-03T09:12:31.584Z,100978.22
2023-02-03T09:15:34.113Z,100977.25
2023-02-03T09:18:36.453Z,101006.44
2023-02-03T09:21:44.997Z,101003.22
2023-02-03T09:24:51.340Z,100969.00
2023-02-03T09:27:53.814Z,100949.47
2023-02-03T09:31:03.482Z,100998.94
2023-02-03T09:34:06.199Z,101005.81
2023-02-03T09:37:09.003Z,100959.56
2023-02-03T09:40:24.591Z,100945.16
2023-02-03T09:43:47.632Z,100969.75
2023-02-03T09:47:00.829Z,100906.44
2023-02-03T09:50:07.647Z,100950.63
2023-02-03T09:53:28.535Z,100952.34
2023-02-03T09:56:34.511Z,100935.19
2023-02-03T09:59:36.887Z,100919.84
2023-02-03T10:02:50.655Z,100926.66
2023-02-03T10:05:58.036Z,100929.94
2023-02-03T10:09:21.617Z,100930.72
2023-02-03T10:12:38.378Z,100909.25
2023-02-03T10:15:52.919Z,100910.75
2023-02-03T10:19:01.591Z,100888.72
2023-02-03T10:22:08.253Z,100883.41
2023-02-03T10:25:20.844Z,100853.38
2023-02-03T10:28:29.949Z,100857.53
2023-02-03T10:31:36.590Z,100870.31
2023-02-03T10:34:39.867Z,100824.75
2023-02-03T10:37:46.962Z,100880.06
2023-02-03T10:40:49.430Z,100849.47
2023-02-03T10:43:53.224Z,100847.97
2023-02-03T10:46:55.586Z,100819.16
2023-02-03T10:49:58.815Z,100876.09
2023-02-03T10:53:35.897Z,100866.94
2023-02-03T10:56:40.149Z,100862.44
2023-02-03T10:59:45.242Z,100856.59
2023-02-03T11:02:55.588Z,100820.97
2023-02-03T11:06:06.816Z,100811.75
2023-02-03T11:09:28.924Z,100796.44
2023-02-03T11:12:31.426Z,100799.84
2023-02-03T11:15:33.901Z,100807.41
2023-02-03T11:18:44.015Z,100780.06
2023-02-03T11:21:49.409Z,100783.47
2023-02-03T11:24:52.124Z,100768.97
2023-02-03T11:27:56.075Z,100756.91
2023-02-03T11:30:59.072Z,100747.41
2023-02-03T11:34:15.114Z,100765.19
2023-02-03T11:37:27.091Z,100767.69
2023-02-03T11:40:34.380Z,100735.41
2023-02-03T11:43:36.901Z,100763.63
2023-02-03T11:46:40.518Z,100756.91
2023-02-03T11:50:07.726Z,100755.34
2023-02-03T11:53:24.045Z,100723.81
2023-02-03T11:56:45.339Z,100749.38
2023-02-03T11:59:53.595Z,100740.78
2023-02-03T12:03:14.635Z,100742.53
2023-02-03T12:06:55.762Z,100740.78
2023-02-03T12:10:07.813Z,100710.81
2023-02-03T12:13:32.093Z,100729.31
2023-02-03T12:17:06.460Z,100718.06
2023-02-03T12:20:42.643Z,100712.91
2023-02-03T12:24:25.410Z,100701.78
2023-02-03T12:27:44.941Z,100688.31
2023-02-03T12:30:57.524Z,100681.19
2023-02-03T12:34:13.637Z,100667.47
2023-02-03T12:37:43.606Z,100663.16
2023-02-03T12:40:59.796Z,100661.53
2023-02-03T12:44:11.183Z,100657.59
2023-02-03T12:47:50.766Z,100642.44
2023-02-03T12:51:03.501Z,100633.16
2023-02-03T12:54:45.443Z,100618.56
2023-02-03T12:58:00.142Z,100597.31
2023-02-03T13:01:20.034Z,100571.81
2023-02-03T13:04:41.392Z,100594.84
2023-02-03T13:07:51.107Z,100558.09
2023-02-03T13:11:05.561Z,100565.78
2023-02-03T13:14:20.653Z,100551.38
2023-02-03T13:17:46.707Z,100578.59
2023-02-03T13:20:49.204Z,100568.31
2023-02-03T13:23:51.885Z,100564.03
2023-02-03T13:27:14.197Z,100533.44
2023-02-03T13:30:44.059Z,100539.31
2023-02-03T13:33:49.150Z,100529.09
2023-02-03T13:37:13.010Z,100534.28
2023-02-03T13:40:40.840Z,100534.47
2023-02-03T13:43:51.355Z,100483.44
2023-02-03T13:46:56.119Z,100513.16
2023-02-03T13:50:04.106Z,100479.94
2023-02-03T13:53:16.537Z,100485.06
2023-02-03T13:56:24.306Z,100460.50
2023-02-03T13:59:37.385Z,100475.84
2023-02-03T14:02:53.129Z,100462.31
2023-02-03T14:05:57.437Z,100469.94
2023-02-03T14:09:00.249Z,100410.47
2023-02-03T14:12:22.364Z,100453.81
2023-02-03T14:15:33.539Z,100448.00
2023-02-03T14:18:45.168Z,100365.53
2023-02-03T14:22:17.404Z,100419.03
2023-02-03T14:25:21.335Z,100357.84
2023-02-03T14:28:31.166Z,100397.81
2023-02-03T14:31:53.185Z,100396.94
2023-02-03T14:34:55.652Z,100377.38
2023-02-03T14:38:02.298Z,100385.91
2023-02-03T14:41:06.087Z,100389.38
2023-02-03T14:44:53.289Z,100388.56
2023-02-03T14:48:32.525Z,100378.38
2023-02-03T14:51:46.847Z,100385.22
2023-02-03T14:54:55.726Z,100366.53
2023-02-03T14:58:06.420Z,100334.16
2023-02-03T15:01:37.970Z,100329.03
2023-02-03T15:04:41.496Z,100340.13
2023-02-03T15:07:47.584Z,100341.72
2023-02-03T15:10:49.939Z,100332.41
2023-02-03T15:13:52.861Z,100322.25
2023-02-03T15:17:31.324Z,100289.03
2023-02-03T15:20:44.055Z,100272.03
2023-02-03T15:23:49.351Z,100305.19
2023-02-03T15:26:54.974Z,100283.03
2023-02-03T15:29:59.208Z,100254.19
2023-02-03T15:33:07.587Z,100255.91
2023-02-03T15:36:18.311Z,100252.44
2023-02-03T15:39:29.957Z,100270.28
2023-02-03T15:42:58.002Z,100228.66
2023-02-03T15:46:07.476Z,100259.25
2023-02-03T15:49:30.210Z,100209.13
2023-02-03T15:52:40.000Z,100177.63
2023-02-03T15:55:46.973Z,100221.78
2023-02-03T15:58:50.498Z,100217.53
2023-02-03T16:01:53.942Z,100169.13
2023-02-03T16:04:56.715Z,100195.44
2023-02-03T16:08:36.779Z,100197.91
2023-02-03T16:11:39.898Z,100124.00
2023-02-03T16:14:43.277Z,100113.81
2023-02-03T16:17:45.673Z,100167.22
2023-02-03T16:20:50.961Z,100142.66
2023-02-03T16:23:53.661Z,100157.88
2023-02-03T16:26:56.091Z,100119.69
2023-02-03T16:30:22.840Z,100143.44
2023-02-03T16:33:43.498Z,100121.28
2023-02-03T16:37:04.790Z,100103.44
2023-02-03T16:40:26.176Z,100102.56
2023-02-03T16:43:46.853Z,100098.28
2023-02-03T16:47:08.244Z,100089.72
2023-02-03T16:50:58.184Z,100099.00
2023-02-03T16:54:01.492Z,100046.41
2023-02-03T16:57:03.957Z,100068.34
2023-02-03T17:00:08.692Z,100059.91
2023-02-03T17:03:14.685Z,100024.28
2023-02-03T17:06:17.137Z,100018.31
2023-02-03T17:09:22.192Z,100041.16
2023-02-03T17:12:25.687Z,100005.56
2023-02-03T17:15:28.360Z,100026.72
2023-02-03T17:18:31.380Z,99996.19
2023-02-03T17:21:34.032Z,99978.34
2023-02-03T17:24:36.389Z,99985.13
2023-02-03T17:27:38.897Z,99998.59
2023-02-03T17:30:41.738Z,99968.09
2023-02-03T17:33:44.912Z,99944.41
2023-02-03T17:36:47.327Z,99983.28
2023-02-03T17:56:20.742Z,99953.34
2023-02-03T17:59:23.508Z,99949.94
2023-02-03T18:02:25.966Z,99947.38
2023-02-03T18:05:29.040Z,99884.63
2023-02-03T18:08:31.445Z,99914.16
2023-02-03T18:11:36.145Z,99926.00
2023-02-03T18:14:38.567Z,99931.84
2023-02-03T18:17:40.944Z,99913.94
2023-02-03T18:20:43.379Z,99924.16
2023-02-03T18:23:46.549Z,99901.22
2023-02-03T18:26:51.485Z,99921.47
2023-02-03T18:29:54.158Z,99891.00
2023-02-03T18:32:57.575Z,99888.28
2023-02-03T18:36:01.759Z,99916.38
2023-02-03T18:39:05.126Z,99918.97
2023-02-03T18:42:07.931Z,99886.75
2023-02-03T18:45:11.719Z,99878.06
2023-02-03T18:48:14.378Z,99893.28
2023-02-03T18:51:18.922Z,99827.22
2023-02-03T18:54:21.526Z,99867.44
2023-02-03T18:57:25.218Z,99828.91
2023-02-03T19:00:28.012Z,99816.94
2023-02-03T19:03:30.596Z,99801.59
2023-02-03T19:06:34.745Z,99811.97
2023-02-03T19:09:38.174Z,99794.25
2023-02-03T19:12:40.993Z,99833.25
2023-02-03T19:15:43.821Z,99819.00
2023-02-03T19:18:47.562Z,99848.56
2023-02-03T19:21:51.716Z,99825.72
2023-02-03T19:24:55.839Z,99793.13
2023-02-03T19:27:58.603Z,99823.34
2023-02-03T19:31:13.199Z,99818.13
2023-02-03T19:34:17.077Z,99813.03
2023-02-03T19:37:19.776Z,99840.66
2023-02-03T19:40:22.498Z,99823.00
2023-02-03T19:43:25.288Z,99841.63
2023-02-03T19:46:34.161Z,99844.22
2023-02-03T19:49:36.796Z,99849.25
2023-02-03T19:52:39.564Z,99817.84
2023-02-03T19:55:46.307Z,99805.72
2023-02-03T19:58:52.023Z,99786.63
2023-02-03T20:01:56.586Z,99805.47
2023-02-03T20:05:00.846Z,99785.56
2023-02-03T20:08:04.894Z,99822.19
2023-02-03T20:11:07.583Z,99813.59
2023-02-03T20:14:11.261Z,99814.34
2023-02-03T20:17:13.981Z,99806.34
2023-02-03T20:20:19.203Z,99775.91
2023-02-03T20:23:24.319Z,99782.84
2023-02-03T20:26:26.919Z,99801.44
2023-02-03T20:29:29.423Z,99765.72
2023-02-03T20:32:32.219Z,99769.13
2023-02-03T20:35:34.704Z,99774.38
2023-02-03T20:38:37.893Z,99776.88
2023-02-03T20:41:47.036Z,99804.94
2023-02-03T20:44:50.277Z,99785.47
2023-02-03T20:47:52.982Z,99794.75
2023-02-03T20:50:55.795Z,99810.81
2023-02-03T20:53:58.656Z,99791.31
2023-02-03T20:57:02.243Z,99806.56
2023-02-03T21:00:19.798Z,99820.13
2023-02-03T21:03:41.807Z,99817.50
2023-02-03T21:06:44.465Z,99816.66
2023-02-03T21:09:47.147Z,99780.97
2023-02-03T21:12:49.714Z,99810.50
2023-02-03T21:15:55.032Z,99792.09
2023-02-03T21:19:02.647Z,99797.09
2023-02-03T21:22:18.049Z,99796.16
2023-02-03T21:25:30.100Z,99814.09
2023-02-03T21:28:32.766Z,99811.50
2023-02-03T21:31:37.491Z,99799.69
2023-02-03T21:34:43.011Z,99776.19
2023-02-03T21:37:45.378Z,99786.41
2023-02-03T21:40:47.906Z,99810.22
2023-02-03T21:43:53.361Z,99816.31
2023-02-03T21:46:56.336Z,99815.44
2023-02-03T21:50:00.913Z,99801.84
2023-02-03T21:53:10.054Z,99829.81
2023-02-03T21:56:24.689Z,99831.66
2023-02-03T21:59:36.851Z,99822.41
2023-02-03T22:03:01.806Z,99789.41
2023-02-03T22:06:18.661Z,99775.03
2023-02-03T22:09:24.165Z,99817.28
2023-02-03T22:12:26.538Z,99800.44
2023-02-03T22:15:28.971Z,99806.50
2023-02-03T22:18:31.794Z,99795.59
2023-02-03T22:21:34.573Z,99808.41
2023-02-03T22:24:36.982Z,99823.59
2023-02-03T22:27:39.394Z,99794.16
2023-02-03T22:30:41.994Z,99792.72
2023-02-03T22:33:44.515Z,99806.25
2023-02-03T22:36:46.888Z,99826.69
2023-02-03T22:39:49.284Z,99765.72
2023-02-03T22:42:52.245Z,99797.13
2023-02-03T22:45:55.070Z,99824.13
2023-02-03T22:48:57.638Z,99826.47
2023-02-03T22:52:00.111Z,99842.41
2023-02-03T22:55:03.162Z,99839.75
2023-02-03T22:58:07.054Z,99805.06
2023-02-03T23:01:09.490Z,99823.66
2023-02-03T23:04:12.142Z,99793.22
2023-02-03T23:07:14.430Z,99816.16
2023-02-03T23:10:20.507Z,99803.81
2023-02-03T23:13:23.309Z,99814.47
2023-02-03T23:16:25.704Z,99758.88
2023-02-03T23:19:28.612Z,99777.69
2023-02-03T23:22:31.069Z,99795.53
2023-02-03T23:25:33.463Z,99774.28
2023-02-03T23:28:35.881Z,99784.38
2023-02-03T23:31:38.347Z,99808.13
2023-02-03T23:35:15.769Z,99800.44
2023-02-03T23:38:18.873Z,99759.56
2023-02-03T23:41:21.233Z,99769.50
2023-02-03T23:44:23.851Z,99765.97
2023-02-03T23:47:26.266Z,99752.44
2023-02-03T23:50:28.952Z,99754.84
2023-02-03T23:53:31.772Z,99748.13
2023-02-03T23:56:34.078Z,99800.47
2023-02-03T23:59:37.549Z,99804.75
